Time;durP1;ratioP1;P1;durP2;ratioP2;P2;SDS_P1;SDS_P2;PMS_P1;PMS_P2;Temp;Humidity;BMP_temperature;BMP_pressure;BME280_temperature;BME280_humidity;BME280_pressure;Samples;Min_cycle;Max_cycle;Signal;HPM_P1;HPM_P2
2022/07/11 00:02:24;;;;;;;3.70;2.10;;;19.10;99.90;;;;;;5072661;28;20524;-70
2022/07/11 00:04:49;;;;;;;1.83;1.30;;;19.00;99.90;;;;;;5072281;28;20163;-70
2022/07/11 00:07:16;;;;;;;1.47;1.30;;;19.10;99.90;;;;;;5071567;28;20409;-70
2022/07/11 00:09:41;;;;;;;1.73;1.60;;;19.10;99.90;;;;;;5072446;28;20182;-71
2022/07/11 00:12:08;;;;;;;1.97;1.57;;;19.00;99.90;;;;;;5071389;28;21014;-70
2022/07/11 00:14:35;;;;;;;3.00;1.30;;;19.00;99.90;;;;;;5070867;28;20166;-70
2022/07/11 00:17:00;;;;;;;1.50;1.40;;;19.00;99.90;;;;;;5071193;28;20466;-70
2022/07/11 00:19:26;;;;;;;1.77;1.43;;;19.00;99.90;;;;;;5071059;28;20436;-70
2022/07/11 00:21:52;;;;;;;2.07;1.60;;;19.00;99.90;;;;;;5072504;28;20170;-70
2022/07/11 00:24:19;;;;;;;2.33;1.60;;;18.90;99.90;;;;;;5072000;28;20170;-71
2022/07/11 00:26:46;;;;;;;3.53;2.13;;;18.90;99.90;;;;;;5071069;28;20800;-70
2022/07/11 00:29:12;;;;;;;1.93;1.47;;;18.90;99.90;;;;;;5070928;28;20420;-70
2022/07/11 00:31:38;;;;;;;2.00;1.60;;;18.80;99.90;;;;;;5070988;28;20492;-70
2022/07/11 00:34:04;;;;;;;5.03;1.83;;;18.90;99.90;;;;;;5072033;28;20404;-69
2022/07/11 00:36:29;;;;;;;1.87;1.67;;;18.80;99.90;;;;;;5072002;28;20158;-70
2022/07/11 00:38:55;;;;;;;1.70;1.50;;;18.80;99.90;;;;;;5072339;28;20213;-71
2022/07/11 00:41:21;;;;;;;2.07;1.43;;;18.80;99.90;;;;;;5072296;28;20241;-70
2022/07/11 00:43:58;;;;;;;1.93;1.67;;;18.80;99.90;;;;;;5071079;28;20201;-71
2022/07/11 00:46:25;;;;;;;3.77;2.03;;;18.80;99.90;;;;;;5070617;28;20193;-70
2022/07/11 00:48:51;;;;;;;1.73;1.63;;;18.80;99.90;;;;;;5072080;28;20440;-71
2022/07/11 00:51:22;;;;;;;9.83;1.53;;;18.70;99.90;;;;;;5071801;28;20498;-71
2022/07/11 00:53:53;;;;;;;4.73;1.97;;;18.80;99.90;;;;;;5070661;28;20900;-71
2022/07/11 00:56:20;;;;;;;2.27;2.07;;;18.70;99.90;;;;;;5071305;28;20450;-70
2022/07/11 00:58:49;;;;;;;1.80;1.40;;;18.60;99.90;;;;;;5071677;28;20423;-70
2022/07/11 01:01:16;;;;;;;7.43;1.57;;;18.60;99.90;;;;;;5071569;28;20957;-69
2022/07/11 01:03:41;;;;;;;1.30;1.20;;;18.60;99.90;;;;;;5071558;28;20412;-70
2022/07/11 01:06:08;;;;;;;5.13;1.80;;;18.50;99.90;;;;;;5071215;28;20405;-70
2022/07/11 01:08:38;;;;;;;2.10;1.53;;;18.50;99.90;;;;;;5072990;28;20260;-70
2022/07/11 01:11:05;;;;;;;1.87;1.70;;;18.50;99.90;;;;;;5075321;28;20567;-71
2022/07/11 01:13:31;;;;;;;1.93;1.73;;;18.50;99.90;;;;;;5075522;28;20392;-70
2022/07/11 01:16:08;;;;;;;3.43;1.97;;;18.40;99.90;;;;;;5074998;28;20893;-71
2022/07/11 01:18:34;;;;;;;6.57;2.20;;;18.40;99.90;;;;;;5075094;28;20182;-71
2022/07/11 01:21:00;;;;;;;3.60;1.97;;;18.40;99.90;;;;;;5073991;28;20865;-70
2022/07/11 01:23:25;;;;;;;2.17;1.60;;;18.40;99.90;;;;;;5075280;28;20254;-71
2022/07/11 01:25:51;;;;;;;2.23;1.67;;;18.30;99.90;;;;;;5074817;28;20173;-71
2022/07/11 01:28:17;;;;;;;3.30;1.80;;;18.30;99.90;;;;;;5075401;28;20177;-70
2022/07/11 01:30:43;;;;;;;2.00;1.43;;;18.20;99.90;;;;;;5074488;28;20416;-70
2022/07/11 01:33:08;;;;;;;3.37;2.60;;;18.20;99.90;;;;;;5075564;28;20240;-70
2022/07/11 01:35:34;;;;;;;2.90;1.83;;;18.10;99.90;;;;;;5075343;28;20163;-70
2022/07/11 01:37:59;;;;;;;1.97;1.77;;;18.10;99.90;;;;;;5074438;28;20166;-70
2022/07/11 01:40:25;;;;;;;1.50;1.37;;;18.10;99.90;;;;;;5075592;28;20643;-70
2022/07/11 01:42:50;;;;;;;10.53;2.37;;;18.10;99.90;;;;;;5074118;28;20177;-70
2022/07/11 01:45:16;;;;;;;2.77;1.90;;;18.00;99.90;;;;;;5074234;28;20174;-70
2022/07/11 01:47:42;;;;;;;2.17;1.97;;;17.90;99.90;;;;;;5075419;28;20166;-71
2022/07/11 01:50:08;;;;;;;3.67;1.80;;;17.80;99.90;;;;;;5073440;28;20200;-71
2022/07/11 01:52:34;;;;;;;2.27;2.03;;;17.70;99.90;;;;;;5073296;28;20464;-71
2022/07/11 01:54:59;;;;;;;11.70;2.77;;;17.60;99.90;;;;;;5074326;28;20265;-71
2022/07/11 01:57:25;;;;;;;6.63;2.10;;;17.60;99.90;;;;;;5074594;28;20658;-71
2022/07/11 01:59:50;;;;;;;4.13;1.70;;;17.50;99.90;;;;;;5074204;28;20232;-71
2022/07/11 02:02:16;;;;;;;2.90;2.47;;;17.50;99.90;;;;;;5073215;28;20611;-71
2022/07/11 02:04:42;;;;;;;2.07;1.87;;;17.40;99.90;;;;;;5073864;28;20178;-71
2022/07/11 02:07:09;;;;;;;2.40;2.00;;;17.40;99.90;;;;;;5074054;28;20181;-71
2022/07/11 02:09:35;;;;;;;2.40;2.20;;;17.30;99.90;;;;;;5072728;28;20433;-70
2022/07/11 02:12:00;;;;;;;2.60;1.70;;;17.20;99.90;;;;;;5073893;28;20444;-71
2022/07/11 02:14:26;;;;;;;2.27;2.07;;;17.10;99.90;;;;;;5072646;28;20836;-70
2022/07/11 02:16:51;;;;;;;1.87;1.50;;;17.00;99.90;;;;;;5074250;28;20531;-69
2022/07/11 02:19:17;;;;;;;2.20;1.93;;;17.00;99.90;;;;;;5073383;28;20182;-71
2022/07/11 02:21:43;;;;;;;2.40;1.97;;;17.00;99.90;;;;;;5072377;28;20661;-70
2022/07/11 02:24:08;;;;;;;2.67;2.20;;;16.90;99.90;;;;;;5074023;28;20211;-70
2022/07/11 02:26:35;;;;;;;2.80;2.27;;;16.90;99.90;;;;;;5073843;28;20166;-70
2022/07/11 02:29:00;;;;;;;3.00;2.50;;;17.00;99.90;;;;;;5073924;28;20190;-70
2022/07/11 02:31:26;;;;;;;3.30;2.43;;;17.00;99.90;;;;;;5073812;28;20448;-70
2022/07/11 02:33:52;;;;;;;2.03;1.83;;;17.00;99.90;;;;;;5073728;28;20166;-70
2022/07/11 02:36:17;;;;;;;6.60;2.30;;;17.00;99.90;;;;;;5072355;28;20171;-70
2022/07/11 02:38:43;;;;;;;3.10;2.53;;;17.10;99.90;;;;;;5073658;28;20596;-70
2022/07/11 02:41:08;;;;;;;2.70;2.10;;;17.10;99.90;;;;;;5073881;28;20243;-70
2022/07/11 02:43:34;;;;;;;2.90;2.30;;;17.20;99.90;;;;;;5072386;28;20546;-71
2022/07/11 02:46:00;;;;;;;3.47;2.73;;;17.20;99.90;;;;;;5072200;28;20651;-69
2022/07/11 02:48:26;;;;;;;3.83;1.80;;;17.30;99.90;;;;;;5072484;28;20724;-70
2022/07/11 02:50:51;;;;;;;5.33;2.70;;;17.30;99.90;;;;;;5073504;28;20426;-70
2022/07/11 02:53:17;;;;;;;3.50;2.13;;;17.40;99.90;;;;;;5072101;28;20189;-70
2022/07/11 02:55:43;;;;;;;4.43;2.67;;;17.40;99.90;;;;;;5072099;28;20166;-69
2022/07/11 02:58:08;;;;;;;2.17;1.70;;;17.40;99.90;;;;;;5072063;28;20400;-70
2022/07/11 03:00:34;;;;;;;2.40;2.03;;;17.40;99.90;;;;;;5073470;28;20245;-70
2022/07/11 03:03:01;;;;;;;3.67;2.57;;;17.40;99.90;;;;;;5073546;28;20202;-69
2022/07/11 03:05:27;;;;;;;3.57;2.37;;;17.40;99.90;;;;;;5072861;28;20401;-70
2022/07/11 03:07:53;;;;;;;3.97;2.87;;;17.50;99.90;;;;;;5073327;28;20791;-70
2022/07/11 03:10:18;;;;;;;4.37;2.87;;;17.50;99.90;;;;;;5071812;28;20190;-69
2022/07/11 03:12:45;;;;;;;4.83;2.37;;;17.40;99.90;;;;;;5073052;28;20247;-69
2022/07/11 03:15:11;;;;;;;3.73;3.17;;;17.40;99.90;;;;;;5072678;28;20186;-69
2022/07/11 03:17:37;;;;;;;3.40;2.53;;;17.40;99.90;;;;;;5071813;28;20873;-69
2022/07/11 03:20:04;;;;;;;3.33;2.27;;;17.40;99.90;;;;;;5072826;28;20420;-69
2022/07/11 03:22:29;;;;;;;3.90;2.53;;;17.30;99.90;;;;;;5071634;28;20423;-70
2022/07/11 03:24:55;;;;;;;4.20;2.10;;;17.30;99.90;;;;;;5071195;28;20413;-70
2022/07/11 03:27:21;;;;;;;4.20;2.40;;;17.20;99.90;;;;;;5071587;28;20206;-69
2022/07/11 03:29:47;;;;;;;2.37;2.17;;;17.20;99.90;;;;;;5071306;28;20301;-70
2022/07/11 03:32:13;;;;;;;3.27;2.10;;;17.10;99.90;;;;;;5072120;28;20543;-69
2022/07/11 03:34:39;;;;;;;7.33;2.30;;;17.10;99.90;;;;;;5072529;28;20812;-69
2022/07/11 03:37:04;;;;;;;8.13;1.97;;;17.00;99.90;;;;;;5072660;28;20929;-70
2022/07/11 03:39:30;;;;;;;2.40;2.20;;;16.90;99.90;;;;;;5071128;28;20190;-70
2022/07/11 03:41:56;;;;;;;3.20;2.30;;;16.80;99.90;;;;;;5072544;28;20635;-70
2022/07/11 03:44:21;;;;;;;3.90;2.77;;;16.70;99.90;;;;;;5072027;28;20170;-69
2022/07/11 03:46:48;;;;;;;2.53;2.17;;;16.60;99.90;;;;;;5072419;28;20166;-70
2022/07/11 03:49:13;;;;;;;2.70;2.10;;;16.60;99.90;;;;;;5072339;28;20278;-69
2022/07/11 03:51:39;;;;;;;2.67;2.17;;;16.60;99.90;;;;;;5072340;28;20606;-70
2022/07/11 03:54:05;;;;;;;4.00;2.40;;;16.50;99.90;;;;;;5072192;28;20193;-71
2022/07/11 03:56:31;;;;;;;1.80;1.60;;;16.50;99.90;;;;;;5072008;28;20174;-68
2022/07/11 03:58:56;;;;;;;3.70;3.00;;;16.40;99.90;;;;;;5072185;28;20239;-70
2022/07/11 04:01:22;;;;;;;3.37;3.07;;;16.40;99.90;;;;;;5070852;28;20413;-70
2022/07/11 04:03:48;;;;;;;2.93;2.40;;;16.40;99.90;;;;;;5072313;28;20186;-70
2022/07/11 04:06:14;;;;;;;3.37;2.43;;;16.30;99.90;;;;;;5071872;28;20197;-70
2022/07/11 04:08:40;;;;;;;2.30;2.10;;;16.40;99.90;;;;;;5072096;28;20566;-70
2022/07/11 04:11:05;;;;;;;3.53;3.20;;;16.40;99.90;;;;;;5070689;28;20417;-69
2022/07/11 04:13:31;;;;;;;6.43;3.40;;;16.40;99.90;;;;;;5072080;28;20174;-70
2022/07/11 04:15:57;;;;;;;2.83;2.23;;;16.50;99.90;;;;;;5071785;28;20624;-71
2022/07/11 04:18:23;;;;;;;2.77;2.57;;;16.50;99.90;;;;;;5071970;28;20182;-70
2022/07/11 04:20:49;;;;;;;3.40;3.07;;;16.60;99.90;;;;;;5072093;28;20428;-71
2022/07/11 04:23:17;;;;;;;5.20;3.60;;;16.70;99.90;;;;;;5071964;28;20400;-71
2022/07/11 04:25:43;;;;;;;3.57;2.20;;;16.80;99.90;;;;;;5071452;28;20174;-71
2022/07/11 04:28:09;;;;;;;2.83;2.43;;;16.90;99.90;;;;;;5071861;28;20415;-70
2022/07/11 04:30:34;;;;;;;2.77;2.57;;;17.00;99.90;;;;;;5070803;28;20178;-70
2022/07/11 04:33:00;;;;;;;2.73;2.40;;;17.10;99.90;;;;;;5070532;28;20577;-70
2022/07/11 04:35:30;;;;;;;7.50;3.77;;;17.20;99.90;;;;;;5071462;28;20535;-70
2022/07/11 04:37:56;;;;;;;3.40;2.37;;;17.40;99.90;;;;;;5071878;28;20147;-70
2022/07/11 04:40:23;;;;;;;2.70;2.50;;;17.50;99.90;;;;;;5071636;28;20428;-70
2022/07/11 04:42:52;;;;;;;3.10;2.30;;;17.60;99.90;;;;;;5071948;28;20166;-70
2022/07/11 04:45:18;;;;;;;6.70;2.47;;;17.60;99.90;;;;;;5075578;28;20405;-70
2022/07/11 04:47:44;;;;;;;3.83;2.30;;;17.70;99.90;;;;;;5075745;28;20419;-70
2022/07/11 04:50:09;;;;;;;4.83;2.40;;;17.80;99.90;;;;;;5074876;28;20259;-70
2022/07/11 04:52:35;;;;;;;1.80;1.70;;;17.90;99.90;;;;;;5076266;28;20216;-70
2022/07/11 04:55:00;;;;;;;3.10;2.13;;;18.00;99.90;;;;;;5075832;28;20639;-70
2022/07/11 04:57:26;;;;;;;2.37;1.80;;;18.10;99.90;;;;;;5075909;28;20581;-71
2022/07/11 04:59:52;;;;;;;2.00;1.77;;;18.20;99.90;;;;;;5076121;28;20190;-70
2022/07/11 05:02:18;;;;;;;3.73;2.20;;;18.20;99.90;;;;;;5074585;28;20857;-71
2022/07/11 05:04:44;;;;;;;2.30;2.10;;;18.20;99.90;;;;;;5075740;28;20219;-70
2022/07/11 05:07:10;;;;;;;2.70;2.13;;;18.20;99.90;;;;;;5075822;28;20167;-71
2022/07/11 05:09:35;;;;;;;3.80;2.00;;;18.30;99.90;;;;;;5075702;28;20424;-71
2022/07/11 05:12:01;;;;;;;2.80;1.97;;;18.30;99.90;;;;;;5075635;28;20190;-70
2022/07/11 05:14:26;;;;;;;2.73;2.53;;;18.40;99.90;;;;;;5075417;28;20265;-70
2022/07/11 05:16:52;;;;;;;2.87;2.53;;;18.40;99.90;;;;;;5075654;28;20178;-70
2022/07/11 05:19:17;;;;;;;10.43;1.90;;;18.50;99.90;;;;;;5074762;28;20186;-70
2022/07/11 05:21:43;;;;;;;5.17;1.60;;;18.60;99.90;;;;;;5074540;28;20223;-70
2022/07/11 05:24:09;;;;;;;2.40;1.23;;;18.70;99.90;;;;;;5075477;28;20170;-69
2022/07/11 05:26:34;;;;;;;1.30;1.20;;;18.70;99.90;;;;;;5075426;28;20535;-70
2022/07/11 05:29:00;;;;;;;5.73;1.87;;;18.60;99.90;;;;;;5075755;28;20186;-70
2022/07/11 05:31:26;;;;;;;3.53;1.17;;;18.60;99.90;;;;;;5075617;28;20182;-70
2022/07/11 05:33:51;;;;;;;2.20;1.33;;;18.70;99.90;;;;;;5075278;28;20190;-71
2022/07/11 05:36:17;;;;;;;2.90;1.70;;;18.60;99.90;;;;;;5074660;28;20166;-71
2022/07/11 05:38:42;;;;;;;1.60;1.50;;;18.70;99.90;;;;;;5074951;28;20535;-70
2022/07/11 05:41:08;;;;;;;3.73;2.57;;;18.70;99.90;;;;;;5075435;28;20177;-70
2022/07/11 05:43:33;;;;;;;5.50;1.70;;;18.80;99.90;;;;;;5074892;28;20585;-69
2022/07/11 05:45:59;;;;;;;2.70;1.30;;;18.80;99.90;;;;;;5074560;28;20620;-71
2022/07/11 05:48:24;;;;;;;2.27;1.60;;;18.80;99.90;;;;;;5074587;28;20647;-69
2022/07/11 05:50:50;;;;;;;2.00;1.47;;;18.80;99.90;;;;;;5074712;28;20170;-70
2022/07/11 05:53:15;;;;;;;1.00;0.90;;;18.90;99.90;;;;;;5073232;28;20335;-71
2022/07/11 05:55:41;;;;;;;1.47;1.00;;;18.80;99.90;;;;;;5074077;28;20737;-72
2022/07/11 05:58:07;;;;;;;3.77;1.30;;;18.90;99.90;;;;;;5074445;28;20155;-71
2022/07/11 06:00:32;;;;;;;1.20;1.07;;;18.90;99.90;;;;;;5074523;28;20170;-72
2022/07/11 06:02:58;;;;;;;2.53;1.90;;;19.00;99.90;;;;;;5073248;28;20166;-71
2022/07/11 06:05:23;;;;;;;2.33;1.30;;;19.00;99.90;;;;;;5074153;28;20166;-72
2022/07/11 06:10:33;;;;;;;1.57;1.23;;;19.00;99.90;;;;;;5074317;28;20227;-71
2022/07/11 06:12:59;;;;;;;5.27;1.27;;;19.00;99.90;;;;;;5074035;28;20448;-71
2022/07/11 06:15:24;;;;;;;2.17;1.93;;;19.10;99.90;;;;;;5073748;28;20167;-70
2022/07/11 06:17:50;;;;;;;1.90;1.37;;;19.10;99.90;;;;;;5072607;28;20178;-71
2022/07/11 06:20:16;;;;;;;1.67;1.57;;;19.20;99.90;;;;;;5072716;28;20186;-71
2022/07/11 06:22:42;;;;;;;1.93;1.73;;;19.30;99.90;;;;;;5073865;28;20450;-70
2022/07/11 06:25:09;;;;;;;1.20;1.10;;;19.20;99.90;;;;;;5072480;28;20705;-72
2022/07/11 06:27:35;;;;;;;1.93;1.60;;;19.30;99.90;;;;;;5074010;28;20177;-71
2022/07/11 06:30:01;;;;;;;3.10;1.80;;;19.30;99.90;;;;;;5073895;28;20790;-71
2022/07/11 06:32:26;;;;;;;2.67;1.80;;;19.30;99.90;;;;;;5073895;28;20444;-72
2022/07/11 06:34:52;;;;;;;1.77;1.50;;;19.40;99.90;;;;;;5072254;28;20196;-72
2022/07/11 06:37:18;;;;;;;1.20;1.10;;;19.40;99.90;;;;;;5073812;28;20158;-72
2022/07/11 06:39:44;;;;;;;1.90;1.70;;;19.50;99.90;;;;;;5073115;28;20945;-71
2022/07/11 06:42:09;;;;;;;2.07;1.53;;;19.60;99.90;;;;;;5073815;28;20162;-70
2022/07/11 06:44:35;;;;;;;3.60;3.30;;;19.80;99.90;;;;;;5073229;28;20167;-70
2022/07/11 06:47:00;;;;;;;3.87;2.40;;;20.10;99.90;;;;;;5073670;28;20166;-70
2022/07/11 06:49:26;;;;;;;2.90;2.10;;;20.20;99.90;;;;;;5073524;28;20190;-71
2022/07/11 06:51:51;;;;;;;2.63;2.30;;;20.40;99.90;;;;;;5071953;28;20611;-71
2022/07/11 06:54:17;;;;;;;4.00;2.33;;;20.50;99.90;;;;;;5071882;28;20176;-71
2022/07/11 06:56:42;;;;;;;3.13;2.07;;;20.70;99.90;;;;;;5073177;28;20179;-71
2022/07/11 06:59:08;;;;;;;1.90;1.70;;;20.80;99.90;;;;;;5072046;28;20192;-71
2022/07/11 07:01:33;;;;;;;2.00;1.80;;;20.80;99.90;;;;;;5073330;28;20173;-70
2022/07/11 07:03:59;;;;;;;3.57;1.60;;;21.00;99.90;;;;;;5073427;28;20243;-71
2022/07/11 07:06:24;;;;;;;3.20;1.70;;;21.00;99.90;;;;;;5072186;28;20174;-71
2022/07/11 07:08:50;;;;;;;3.20;2.90;;;21.00;99.90;;;;;;5073126;28;20720;-71
2022/07/11 07:11:15;;;;;;;4.80;3.30;;;21.10;99.90;;;;;;5072941;28;20585;-71
2022/07/11 07:13:41;;;;;;;2.73;2.40;;;21.10;99.90;;;;;;5073084;28;20296;-71
2022/07/11 07:16:07;;;;;;;3.80;2.97;;;21.20;99.90;;;;;;5072792;28;20233;-71
2022/07/11 07:18:33;;;;;;;3.30;2.83;;;21.30;99.90;;;;;;5073035;28;20174;-71
2022/07/11 07:20:58;;;;;;;3.93;3.00;;;21.30;99.90;;;;;;5072897;28;20596;-70
2022/07/11 07:23:24;;;;;;;2.90;2.70;;;21.40;99.90;;;;;;5073091;28;20408;-71
2022/07/11 07:25:50;;;;;;;2.70;2.43;;;21.40;99.90;;;;;;5072562;28;20186;-72
2022/07/11 07:28:15;;;;;;;3.50;2.40;;;21.40;99.90;;;;;;5072734;28;20405;-72
2022/07/11 07:30:41;;;;;;;5.23;2.10;;;21.30;99.90;;;;;;5072731;28;20166;-72
2022/07/11 07:33:07;;;;;;;7.00;1.90;;;21.20;99.90;;;;;;5072464;28;20190;-72
2022/07/11 07:35:33;;;;;;;2.47;1.73;;;21.20;99.90;;;;;;5072147;28;20405;-72
2022/07/11 07:38:00;;;;;;;2.37;1.40;;;21.20;99.90;;;;;;5072481;28;20158;-71
2022/07/11 07:40:26;;;;;;;1.97;1.80;;;21.10;99.90;;;;;;5072708;28;20182;-72
2022/07/11 07:42:51;;;;;;;1.93;1.73;;;21.00;99.90;;;;;;5072398;28;20403;-70
2022/07/11 07:45:17;;;;;;;1.50;1.30;;;20.90;99.90;;;;;;5072243;28;20170;-71
2022/07/11 07:47:42;;;;;;;1.53;1.30;;;20.90;99.90;;;;;;5072491;28;20508;-71
2022/07/11 07:50:08;;;;;;;1.57;1.07;;;20.90;99.90;;;;;;5071533;28;20324;-70
2022/07/11 07:52:34;;;;;;;1.23;1.13;;;20.80;99.90;;;;;;5072164;28;20743;-71
2022/07/11 07:54:59;;;;;;;1.43;1.33;;;20.80;99.90;;;;;;5072107;28;20453;-71
2022/07/11 07:57:25;;;;;;;1.90;1.40;;;20.80;99.90;;;;;;5072323;28;20241;-71
2022/07/11 07:59:50;;;;;;;1.10;0.80;;;20.90;99.90;;;;;;5072242;28;20186;-71
2022/07/11 08:02:16;;;;;;;1.30;1.00;;;20.90;99.90;;;;;;5072333;28;20224;-71
2022/07/11 08:04:42;;;;;;;3.93;1.80;;;20.80;99.90;;;;;;5071403;28;20170;-71
2022/07/11 08:07:07;;;;;;;2.40;1.70;;;20.80;99.90;;;;;;5071658;28;20167;-71
2022/07/11 08:09:33;;;;;;;2.70;1.90;;;20.70;99.90;;;;;;5071732;28;20610;-70
2022/07/11 08:11:58;;;;;;;3.30;1.50;;;20.70;99.90;;;;;;5071674;28;20186;-71
2022/07/11 08:14:24;;;;;;;1.50;1.20;;;20.70;99.90;;;;;;5070257;28;20162;-71
2022/07/11 08:16:50;;;;;;;2.17;1.27;;;20.80;99.90;;;;;;5071719;28;20237;-71
2022/07/11 08:19:16;;;;;;;2.13;1.83;;;20.90;99.90;;;;;;5071392;28;20186;-71
2022/07/11 08:21:41;;;;;;;1.73;1.50;;;20.80;99.90;;;;;;5071577;28;20705;-72
2022/07/11 08:24:07;;;;;;;9.73;1.60;;;20.90;99.90;;;;;;5071415;28;20253;-72
2022/07/11 08:26:33;;;;;;;1.50;1.13;;;21.00;99.90;;;;;;5070037;28;20209;-72
2022/07/11 08:29:03;;;;;;;2.60;1.50;;;21.00;99.90;;;;;;5071501;28;20213;-72
2022/07/11 08:31:28;;;;;;;2.10;1.43;;;21.00;99.90;;;;;;5071381;28;20440;-72
2022/07/11 08:33:57;;;;;;;2.20;1.40;;;21.10;99.90;;;;;;5071701;28;20401;-72
2022/07/11 08:36:22;;;;;;;1.90;1.27;;;21.30;99.90;;;;;;5071511;28;20185;-72
2022/07/11 08:38:48;;;;;;;3.13;1.40;;;21.50;99.90;;;;;;5070108;28;20929;-71
2022/07/11 08:41:14;;;;;;;2.67;1.83;;;21.70;99.90;;;;;;5071937;28;20167;-72
2022/07/11 08:43:42;;;;;;;4.30;2.80;;;22.10;99.90;;;;;;5071806;28;20686;-70
2022/07/11 08:46:09;;;;;;;1.47;1.37;;;22.30;99.90;;;;;;5071329;28;20495;-71
2022/07/11 08:48:38;;;;;;;1.77;1.67;;;22.40;99.90;;;;;;5070347;28;20769;-71
2022/07/11 08:51:05;;;;;;;1.60;1.47;;;22.60;99.90;;;;;;5071633;28;20465;-70
2022/07/11 08:53:33;;;;;;;2.23;1.70;;;22.70;99.90;;;;;;5071710;28;20424;-70
2022/07/11 08:55:59;;;;;;;3.10;1.40;;;22.90;99.90;;;;;;5071407;28;20396;-70
2022/07/11 08:58:26;;;;;;;3.33;1.53;;;23.10;99.90;;;;;;5071619;28;20977;-70
2022/07/11 09:00:51;;;;;;;1.90;1.80;;;23.20;99.90;;;;;;5070295;28;20404;-70
2022/07/11 09:03:19;;;;;;;2.37;1.83;;;23.50;99.90;;;;;;5071590;28;20807;-71
2022/07/11 09:05:45;;;;;;;2.40;1.50;;;23.90;99.90;;;;;;5071463;28;20174;-71
2022/07/11 09:08:12;;;;;;;2.70;1.93;;;24.40;99.90;;;;;;5071433;28;20400;-71
2022/07/11 09:10:39;;;;;;;1.83;1.37;;;24.80;99.90;;;;;;5071595;28;20245;-71
2022/07/11 09:13:15;;;;;;;1.50;1.40;;;25.20;99.90;;;;;;5071437;28;20452;-70
2022/07/11 09:15:46;;;;;;;1.87;1.60;;;25.40;99.90;;;;;;5071584;28;20983;-70
2022/07/11 09:18:37;;;;;;;1.80;1.50;;;25.20;99.90;;;;;;5071412;28;20404;-70
2022/07/11 09:26:44;;;;;;;3.00;1.33;;;24.50;99.90;;;;;;5071544;28;21072;-71
2022/07/11 09:29:13;;;;;;;1.30;1.20;;;24.30;99.90;;;;;;5072161;28;20424;-71
2022/07/11 09:31:40;;;;;;;1.60;1.30;;;24.30;99.90;;;;;;5073790;28;20444;-71
2022/07/11 09:34:10;;;;;;;2.27;1.00;;;24.30;99.90;;;;;;5074929;28;20400;-72
2022/07/11 09:36:40;;;;;;;1.40;1.00;;;24.40;99.90;;;;;;5074812;28;20446;-71
2022/07/11 09:39:09;;;;;;;2.53;2.13;;;24.50;99.90;;;;;;5075086;28;20796;-72
2022/07/11 09:41:36;;;;;;;1.40;1.10;;;24.40;99.90;;;;;;5074478;28;20401;-71
2022/07/11 09:44:12;;;;;;;1.30;0.90;;;24.20;99.90;;;;;;5074902;28;20405;-71
2022/07/11 09:46:38;;;;;;;1.20;1.00;;;24.10;99.90;;;;;;5074767;28;20457;-70
2022/07/11 09:49:05;;;;;;;1.10;0.90;;;24.00;99.90;;;;;;5073401;28;20880;-72
2022/07/11 09:51:32;;;;;;;1.20;1.00;;;23.90;99.90;;;;;;5074691;28;20440;-72
2022/07/11 09:53:59;;;;;;;3.57;1.60;;;23.90;99.90;;;;;;5074524;28;20413;-71
2022/07/11 09:56:51;;;;;;;1.00;0.80;;;23.80;99.90;;;;;;5074416;28;20420;-72
2022/07/11 09:59:17;;;;;;;1.33;1.23;;;23.90;99.90;;;;;;5074590;28;20424;-72
2022/07/11 10:01:44;;;;;;;1.20;1.00;;;23.90;99.90;;;;;;5073549;28;20549;-70
2022/07/11 10:04:10;;;;;;;2.37;1.50;;;24.10;99.90;;;;;;5074373;28;20412;-70
2022/07/11 10:06:37;;;;;;;1.20;1.00;;;24.20;99.90;;;;;;5073103;28;20413;-72
2022/07/11 10:09:04;;;;;;;2.70;1.03;;;24.50;99.90;;;;;;5073089;28;20190;-71
2022/07/11 10:11:35;;;;;;;2.17;1.00;;;24.90;99.90;;;;;;5074418;28;20796;-71
2022/07/11 10:14:02;;;;;;;3.43;1.03;;;25.10;99.90;;;;;;5074386;28;20397;-71
2022/07/11 10:16:46;;;;;;;1.10;0.90;;;25.40;99.90;;;;;;5074077;28;20393;-72
2022/07/11 10:19:30;;;;;;;1.60;0.83;;;25.60;99.90;;;;;;5074119;28;20427;-70
2022/07/11 10:22:09;;;;;;;1.13;1.00;;;25.60;99.90;;;;;;5074292;28;20438;-71
2022/07/11 10:24:59;;;;;;;1.77;1.57;;;25.40;99.90;;;;;;5073112;28;20416;-71
2022/07/11 10:27:48;;;;;;;1.20;1.10;;;25.20;99.90;;;;;;5072890;28;20417;-72
2022/07/11 10:30:33;;;;;;;1.50;0.80;;;25.20;99.90;;;;;;5072787;28;20432;-71
2022/07/11 10:33:04;;;;;;;1.07;0.77;;;25.10;99.90;;;;;;5073881;28;21200;-70
2022/07/11 10:35:30;;;;;;;1.67;0.90;;;24.90;99.90;;;;;;5072387;28;20401;-71
2022/07/11 10:37:56;;;;;;;1.20;1.00;;;24.70;99.90;;;;;;5073935;28;20407;-71
2022/07/11 10:40:42;;;;;;;1.90;1.27;;;24.60;99.90;;;;;;5073054;28;20179;-71
2022/07/11 10:43:08;;;;;;;1.20;1.10;;;24.50;99.90;;;;;;5073743;28;20170;-71
2022/07/11 10:45:55;;;;;;;2.43;1.00;;;24.60;99.90;;;;;;5073532;28;20511;-71
2022/07/11 10:48:21;;;;;;;1.20;0.90;;;24.40;99.90;;;;;;5073763;28;20204;-71
2022/07/11 10:50:47;;;;;;;1.30;1.00;;;24.30;99.90;;;;;;5073715;28;20408;-72
2022/07/11 10:53:23;;;;;;;2.03;1.07;;;24.30;99.90;;;;;;5073444;28;20209;-72
2022/07/11 10:56:26;;;;;;;1.70;1.10;;;24.20;99.90;;;;;;5072059;28;20223;-71
2022/07/11 10:59:22;;;;;;;1.57;1.00;;;24.20;99.90;;;;;;5072245;28;20497;-72
2022/07/11 11:02:04;;;;;;;1.30;1.00;;;24.10;99.90;;;;;;5056151;28;20507;-71
2022/07/11 11:04:43;;;;;;;1.10;0.90;;;24.10;99.90;;;;;;5073146;28;20447;-71
2022/07/11 11:07:43;;;;;;;1.00;0.90;;;24.00;99.90;;;;;;5073653;28;20830;-71
2022/07/11 11:10:18;;;;;;;1.00;0.77;;;24.20;99.90;;;;;;5029046;28;20548;-70
2022/07/11 11:13:10;;;;;;;1.10;0.70;;;24.30;99.90;;;;;;5073122;28;20451;-71
2022/07/11 11:15:49;;;;;;;1.23;0.70;;;24.60;99.90;;;;;;5072984;28;20399;-72
2022/07/11 11:18:26;;;;;;;1.20;0.77;;;24.90;99.90;;;;;;5073037;28;20426;-71
2022/07/11 11:21:06;;;;;;;1.23;0.90;;;25.10;99.90;;;;;;5071748;28;20885;-72
2022/07/11 11:23:41;;;;;;;1.00;0.73;;;25.20;99.90;;;;;;5072973;28;20405;-71
2022/07/11 11:26:18;;;;;;;1.00;0.70;;;25.20;99.90;;;;;;5072531;28;20445;-71
2022/07/11 11:29:03;;;;;;;1.20;0.90;;;25.20;99.90;;;;;;5072817;28;20562;-71
2022/07/11 11:31:30;;;;;;;1.10;0.90;;;25.10;99.90;;;;;;5072874;28;20946;-71
2022/07/11 11:33:57;;;;;;;5.30;3.17;;;25.20;99.90;;;;;;5072811;28;20480;-71
2022/07/11 11:36:24;;;;;;;1.90;1.30;;;25.40;99.90;;;;;;5072580;28;20408;-70
2022/07/11 11:38:50;;;;;;;2.03;1.60;;;25.80;99.90;;;;;;5072644;28;20952;-72
2022/07/11 11:41:27;;;;;;;1.10;0.80;;;26.60;99.90;;;;;;5072506;28;20493;-73
2022/07/11 11:43:55;;;;;;;1.20;0.90;;;27.30;99.90;;;;;;5072579;28;20392;-73
2022/07/11 11:46:29;;;;;;;1.20;0.80;;;27.70;99.90;;;;;;5072159;28;20403;-73
2022/07/11 11:48:56;;;;;;;1.20;0.90;;;28.00;99.90;;;;;;5072944;28;20416;-71
2022/07/11 11:51:22;;;;;;;1.47;1.00;;;28.00;99.90;;;;;;5072846;28;20428;-71
2022/07/11 11:53:54;;;;;;;1.10;0.77;;;28.10;99.90;;;;;;5072590;28;21081;-71
2022/07/11 11:56:21;;;;;;;1.20;0.93;;;28.40;99.90;;;;;;5071226;28;20496;-71
2022/07/11 11:58:48;;;;;;;1.20;1.00;;;28.80;99.90;;;;;;5072345;28;20481;-71
2022/07/11 12:01:25;;;;;;;1.10;0.80;;;29.40;99.90;;;;;;5070988;28;20431;-71
2022/07/11 12:03:54;;;;;;;3.73;1.07;;;29.80;97.70;;;;;;5072489;28;20400;-72
2022/07/11 12:06:26;;;;;;;1.47;0.80;;;29.80;93.80;;;;;;5072281;28;20818;-72
2022/07/11 12:08:57;;;;;;;1.00;0.70;;;29.70;95.00;;;;;;5072359;28;20421;-72
2022/07/11 12:11:23;;;;;;;1.20;0.90;;;29.30;94.20;;;;;;5072794;28;20393;-72
2022/07/11 12:13:56;;;;;;;1.20;1.10;;;29.20;94.60;;;;;;5072966;28;20405;-72
2022/07/11 12:19:11;;;;;;;1.50;1.40;;;28.70;98.00;;;;;;5072892;28;20853;-72
2022/07/11 12:21:45;;;;;;;1.70;1.60;;;28.70;98.00;;;;;;5072520;28;20426;-72
2022/07/11 12:24:13;;;;;;;1.60;1.50;;;28.60;94.50;;;;;;5072405;28;20455;-72
2022/07/11 12:26:40;;;;;;;1.90;1.80;;;28.70;95.50;;;;;;5070941;28;20875;-71
2022/07/11 12:29:12;;;;;;;3.63;2.57;;;28.80;95.60;;;;;;5071864;28;20431;-70
2022/07/11 12:31:46;;;;;;;2.53;2.33;;;28.80;94.90;;;;;;5072183;28;20452;-71
2022/07/11 12:34:12;;;;;;;2.60;2.40;;;29.20;94.60;;;;;;5071866;28;20411;-71
2022/07/11 12:36:37;;;;;;;2.90;1.90;;;29.40;92.10;;;;;;5071765;28;20892;-72
2022/07/11 12:39:04;;;;;;;2.90;2.67;;;29.30;92.60;;;;;;5071830;28;20801;-71
2022/07/11 12:41:30;;;;;;;3.50;2.70;;;29.10;94.90;;;;;;5071808;28;20167;-71
2022/07/11 12:46:42;;;;;;;2.37;2.17;;;28.40;95.10;;;;;;5072095;28;20450;-71
2022/07/11 12:49:11;;;;;;;2.37;2.17;;;28.20;96.00;;;;;;5071702;28;20952;-71
2022/07/11 12:51:41;;;;;;;2.97;2.00;;;27.90;97.00;;;;;;5071678;28;20444;-71
2022/07/11 12:54:08;;;;;;;4.23;2.27;;;27.70;97.50;;;;;;5070321;28;20517;-71
2022/07/11 12:56:34;;;;;;;2.43;2.20;;;27.50;99.90;;;;;;5071428;28;20863;-70
2022/07/11 12:59:03;;;;;;;2.03;1.83;;;27.30;99.90;;;;;;5070309;28;20420;-71
2022/07/11 13:01:30;;;;;;;1.40;1.30;;;27.20;99.90;;;;;;5071610;28;20399;-70
2022/07/11 13:03:56;;;;;;;4.33;1.40;;;27.10;99.90;;;;;;5072062;28;20771;-71